Time;durP1;ratioP1;P1;durP2;ratioP2;P2;SDS_P1;SDS_P2;PMS_P1;PMS_P2;Temp;Humidity;BMP_temperature;BMP_pressure;BME280_temperature;BME280_humidity;BME280_pressure;Samples;Min_cycle;Max_cycle;Signal;HPM_P1;HPM_P2
2020/12/19 00:00:19;;;;;;;4.05;1.80;;;18.30;35.40;;;;;;1042190;28;20024;-73
2020/12/19 00:00:51;;;;;;;3.28;1.80;;;18.30;35.50;;;;;;1039520;28;20072;-73
2020/12/19 00:01:32;;;;;;;1.98;1.73;;;18.30;35.20;;;;;;1036605;28;20038;-73
2020/12/19 00:02:06;;;;;;;2.70;1.85;;;18.30;34.90;;;;;;1036779;28;20049;-73
2020/12/19 00:02:38;;;;;;;3.78;1.95;;;18.30;35.60;;;;;;1036408;28;20080;-73
2020/12/19 00:03:09;;;;;;;3.65;1.75;;;18.30;35.60;;;;;;1037510;28;20017;-73
2020/12/19 00:03:43;;;;;;;3.08;1.90;;;18.30;35.20;;;;;;1040724;28;20009;-73
2020/12/19 00:04:14;;;;;;;2.53;1.85;;;18.30;34.40;;;;;;1040391;28;20013;-73
2020/12/19 00:04:45;;;;;;;2.58;2.00;;;18.30;34.20;;;;;;1036533;28;20436;-73
2020/12/19 00:05:17;;;;;;;5.53;2.00;;;18.20;33.70;;;;;;1037564;28;20018;-73
2020/12/19 00:05:48;;;;;;;3.03;1.80;;;18.20;33.50;;;;;;1035665;28;20030;-73
2020/12/19 00:06:20;;;;;;;3.45;1.83;;;18.20;33.30;;;;;;1031397;28;20508;-73
2020/12/19 00:06:51;;;;;;;4.45;2.10;;;18.20;33.20;;;;;;1028778;28;20074;-73
2020/12/19 00:07:22;;;;;;;3.85;1.98;;;18.20;33.30;;;;;;1030083;28;20065;-73
2020/12/19 00:07:54;;;;;;;3.28;1.90;;;18.20;33.20;;;;;;1030869;28;20094;-73
2020/12/19 00:08:25;;;;;;;4.18;1.92;;;18.20;33.50;;;;;;1036609;28;20025;-73
2020/12/19 00:08:57;;;;;;;1.90;1.33;;;18.20;33.40;;;;;;1040683;28;20025;-73
2020/12/19 00:09:29;;;;;;;2.55;1.80;;;18.20;33.10;;;;;;1039135;28;20018;-73
2020/12/19 00:10:01;;;;;;;2.55;1.80;;;18.10;33.20;;;;;;1038023;28;20018;-73
2020/12/19 00:10:33;;;;;;;4.15;1.80;;;18.20;33.20;;;;;;1037843;28;20112;-73
2020/12/19 00:11:06;;;;;;;2.10;1.80;;;18.20;33.90;;;;;;1038862;28;20391;-73
2020/12/19 00:11:41;;;;;;;3.10;2.03;;;18.20;34.10;;;;;;1038753;28;20017;-73
2020/12/19 00:12:12;;;;;;;3.47;2.03;;;18.20;34.60;;;;;;1040010;28;20022;-73
2020/12/19 00:12:45;;;;;;;2.80;1.88;;;18.10;35.10;;;;;;1040244;28;20095;-73
2020/12/19 00:13:17;;;;;;;1.67;1.48;;;18.20;35.00;;;;;;1035502;28;20026;-73
2020/12/19 00:13:48;;;;;;;3.92;1.88;;;18.10;34.40;;;;;;1036684;28;20022;-73
2020/12/19 00:14:20;;;;;;;2.88;1.90;;;18.10;34.10;;;;;;1039229;28;20018;-73
2020/12/19 00:14:52;;;;;;;2.70;1.88;;;18.10;33.60;;;;;;1034470;28;20024;-73
2020/12/19 00:15:23;;;;;;;3.58;1.95;;;18.10;33.60;;;;;;1033411;28;20454;-72
2020/12/19 00:15:55;;;;;;;1.77;1.60;;;18.10;34.00;;;;;;1032797;28;20456;-73
2020/12/19 00:16:29;;;;;;;4.07;1.65;;;18.10;33.90;;;;;;1039347;28;20479;-73
2020/12/19 00:17:00;;;;;;;3.17;1.92;;;18.10;34.00;;;;;;1040045;28;20013;-73
2020/12/19 00:17:32;;;;;;;3.08;2.00;;;18.00;33.80;;;;;;1037272;28;20026;-73
2020/12/19 00:18:03;;;;;;;3.00;1.90;;;18.00;34.40;;;;;;1043979;28;20017;-73
2020/12/19 00:18:34;;;;;;;3.40;1.58;;;18.00;34.50;;;;;;1044332;28;20016;-73
2020/12/19 00:19:06;;;;;;;1.88;1.40;;;18.00;35.40;;;;;;1044411;28;20025;-73
2020/12/19 00:19:37;;;;;;;3.53;1.85;;;18.00;35.60;;;;;;1040761;28;20023;-73
2020/12/19 00:20:09;;;;;;;5.32;2.10;;;18.00;35.40;;;;;;1040064;28;20014;-73
2020/12/19 00:20:40;;;;;;;5.35;2.05;;;17.90;35.80;;;;;;1038979;28;20030;-73
2020/12/19 00:21:12;;;;;;;2.80;1.80;;;17.90;36.20;;;;;;1040464;28;20022;-73
2020/12/19 00:21:43;;;;;;;6.43;2.20;;;17.90;36.30;;;;;;1040087;28;20017;-73
2020/12/19 00:22:15;;;;;;;5.38;2.13;;;17.90;36.80;;;;;;1040032;28;20018;-73
2020/12/19 00:22:46;;;;;;;3.70;2.03;;;17.90;36.90;;;;;;1039416;28;20672;-73
2020/12/19 00:23:18;;;;;;;4.78;1.90;;;17.80;37.10;;;;;;1039134;28;20443;-73
2020/12/19 00:23:50;;;;;;;3.72;1.85;;;17.80;37.20;;;;;;1041725;28;20107;-73
2020/12/19 00:24:21;;;;;;;3.03;2.10;;;17.70;37.60;;;;;;1036140;28;20037;-73
2020/12/19 00:24:53;;;;;;;4.90;1.80;;;17.70;38.00;;;;;;1031011;28;20027;-73
2020/12/19 00:25:24;;;;;;;3.63;1.88;;;17.70;37.80;;;;;;1029209;28;20074;-73
2020/12/19 00:25:55;;;;;;;3.05;1.77;;;17.60;37.90;;;;;;1028896;28;20027;-73
2020/12/19 00:26:38;;;;;;;3.05;1.92;;;17.60;38.40;;;;;;1033931;28;20057;-72
2020/12/19 00:27:12;;;;;;;3.10;1.83;;;17.60;38.60;;;;;;1038013;28;20104;-73
2020/12/19 00:27:44;;;;;;;3.70;2.03;;;17.50;38.60;;;;;;1036416;28;20057;-73
2020/12/19 00:28:16;;;;;;;3.20;1.80;;;17.50;38.60;;;;;;1038537;28;20434;-73
2020/12/19 00:28:47;;;;;;;5.22;2.13;;;17.40;38.80;;;;;;1040345;28;20086;-73
2020/12/19 00:29:19;;;;;;;2.63;1.85;;;17.40;39.00;;;;;;1039374;28;20371;-73
2020/12/19 00:29:50;;;;;;;4.55;2.10;;;17.30;39.30;;;;;;1039743;28;20033;-73
2020/12/19 00:30:22;;;;;;;3.22;2.00;;;17.40;39.80;;;;;;1039513;28;20116;-73
2020/12/19 00:30:54;;;;;;;3.63;1.88;;;17.30;39.90;;;;;;1039524;28;20018;-73
2020/12/19 00:31:25;;;;;;;2.85;1.85;;;17.30;40.10;;;;;;1035698;28;20433;-73
2020/12/19 00:31:59;;;;;;;3.20;2.00;;;17.30;39.90;;;;;;1035783;28;20500;-73
2020/12/19 00:32:31;;;;;;;4.28;1.85;;;17.20;40.00;;;;;;1035638;28;20030;-73
2020/12/19 00:33:03;;;;;;;2.78;2.13;;;17.20;40.10;;;;;;1035639;28;20030;-73
2020/12/19 00:33:34;;;;;;;3.13;1.77;;;17.10;40.30;;;;;;1039419;28;20111;-73
2020/12/19 00:34:07;;;;;;;3.13;1.92;;;17.10;40.20;;;;;;1036021;28;20088;-73
2020/12/19 00:34:38;;;;;;;4.75;1.88;;;17.10;40.10;;;;;;1039934;28;20033;-73
2020/12/19 00:35:10;;;;;;;4.15;1.98;;;17.10;40.00;;;;;;1037487;28;20026;-73
2020/12/19 00:35:43;;;;;;;4.30;2.17;;;17.00;40.10;;;;;;1037287;28;20041;-73
2020/12/19 00:36:14;;;;;;;2.45;1.98;;;17.00;40.10;;;;;;1040627;28;20068;-73
2020/12/19 00:36:45;;;;;;;4.07;2.20;;;17.00;40.20;;;;;;1044667;28;20018;-73
2020/12/19 00:37:17;;;;;;;3.28;1.95;;;17.00;40.40;;;;;;1038711;28;20118;-73
2020/12/19 00:37:48;;;;;;;4.70;1.85;;;16.90;40.30;;;;;;1036467;28;20017;-73
2020/12/19 00:38:20;;;;;;;3.75;1.98;;;16.90;40.50;;;;;;1036269;28;20460;-73
2020/12/19 00:38:51;;;;;;;3.28;1.95;;;16.90;40.50;;;;;;1038897;28;20027;-73
2020/12/19 00:39:23;;;;;;;4.55;1.80;;;16.80;40.50;;;;;;1039116;28;20024;-73
2020/12/19 00:39:54;;;;;;;4.60;1.60;;;16.80;40.60;;;;;;1040493;28;20013;-73
2020/12/19 00:40:25;;;;;;;5.10;2.30;;;16.80;40.80;;;;;;1035871;28;20018;-73
2020/12/19 00:40:57;;;;;;;3.97;1.90;;;16.70;40.80;;;;;;1035457;28;20487;-72
2020/12/19 00:41:28;;;;;;;4.65;2.20;;;16.70;40.90;;;;;;1035458;28;20166;-72
2020/12/19 00:42:00;;;;;;;3.17;1.88;;;16.70;41.10;;;;;;1036625;28;20005;-73
2020/12/19 00:42:31;;;;;;;8.13;2.15;;;16.60;41.60;;;;;;1036129;28;20014;-73
2020/12/19 00:43:03;;;;;;;3.17;1.92;;;16.50;42.10;;;;;;1033889;28;20072;-72
2020/12/19 00:43:35;;;;;;;3.10;2.03;;;16.40;42.30;;;;;;1036292;28;20042;-73
2020/12/19 00:44:07;;;;;;;3.08;1.92;;;16.30;42.60;;;;;;1032735;28;20466;-73
2020/12/19 00:44:38;;;;;;;3.70;1.92;;;16.20;42.80;;;;;;1036128;28;20404;-72
2020/12/19 00:45:09;;;;;;;4.57;1.95;;;16.10;42.90;;;;;;1036964;28;20017;-71
2020/12/19 00:45:41;;;;;;;3.95;1.90;;;16.10;43.10;;;;;;1039765;28;20509;-71
2020/12/19 00:46:20;;;;;;;5.55;2.25;;;16.00;43.30;;;;;;1036631;28;20033;-72
2020/12/19 00:46:52;;;;;;;4.45;2.10;;;15.90;43.50;;;;;;1040264;28;20013;-71
2020/12/19 00:47:23;;;;;;;3.90;2.20;;;15.80;43.70;;;;;;1040432;28;20462;-71
2020/12/19 00:47:55;;;;;;;3.40;2.08;;;15.70;44.60;;;;;;1040316;28;20020;-71
2020/12/19 00:48:26;;;;;;;3.30;1.95;;;15.70;44.20;;;;;;1040411;28;20014;-71
2020/12/19 00:48:57;;;;;;;4.63;2.28;;;15.60;44.40;;;;;;1040742;28;20041;-72
2020/12/19 00:49:29;;;;;;;3.28;1.98;;;15.60;44.50;;;;;;1038102;28;20025;-70
2020/12/19 00:50:00;;;;;;;5.45;2.33;;;15.50;44.70;;;;;;1035506;28;20052;-71
2020/12/19 00:50:31;;;;;;;3.40;2.10;;;15.40;44.80;;;;;;1034814;28;20100;-70
2020/12/19 00:51:03;;;;;;;3.42;1.77;;;15.40;44.80;;;;;;1032425;28;20026;-70
2020/12/19 00:51:34;;;;;;;4.22;2.00;;;15.30;45.00;;;;;;1036888;28;20499;-70
2020/12/19 00:52:06;;;;;;;3.45;2.03;;;15.30;45.10;;;;;;1040391;28;20028;-71
2020/12/19 00:52:37;;;;;;;3.38;2.10;;;15.20;45.10;;;;;;1036658;28;20025;-70
2020/12/19 00:53:09;;;;;;;7.00;2.10;;;15.20;45.20;;;;;;1039451;28;20424;-70
2020/12/19 00:53:41;;;;;;;3.50;2.15;;;15.10;45.30;;;;;;1036452;28;20519;-70
2020/12/19 00:54:13;;;;;;;5.60;2.05;;;15.10;45.30;;;;;;1036171;28;20450;-71
2020/12/19 00:54:44;;;;;;;3.67;1.90;;;15.10;45.30;;;;;;1036666;28;20406;-71
2020/12/19 00:55:16;;;;;;;3.72;2.03;;;15.10;45.50;;;;;;1038019;28;20343;-71
2020/12/19 00:55:49;;;;;;;3.17;2.05;;;15.10;45.60;;;;;;1036634;28;20021;-71
2020/12/19 00:56:26;;;;;;;3.65;1.98;;;15.00;45.90;;;;;;1037136;28;20168;-71
2020/12/19 00:56:57;;;;;;;3.50;2.20;;;15.00;46.10;;;;;;1033660;28;20033;-71
2020/12/19 00:57:33;;;;;;;3.15;2.00;;;15.00;46.40;;;;;;1034695;28;20030;-70
2020/12/19 00:58:04;;;;;;;3.85;2.00;;;14.90;46.60;;;;;;1036692;28;20547;-71
2020/12/19 00:58:35;;;;;;;3.95;2.15;;;14.90;46.60;;;;;;1037545;28;20033;-71
2020/12/19 00:59:07;;;;;;;4.80;2.28;;;14.90;46.60;;;;;;1037126;28;20029;-71
2020/12/19 00:59:38;;;;;;;3.53;1.90;;;14.90;46.60;;;;;;1038582;28;20079;-71
2020/12/19 01:00:10;;;;;;;8.35;2.20;;;14.90;46.60;;;;;;1038011;28;20049;-72
2020/12/19 01:00:42;;;;;;;4.28;2.30;;;14.90;46.50;;;;;;1034189;28;20379;-71
2020/12/19 01:01:15;;;;;;;4.07;2.30;;;14.90;46.60;;;;;;1034661;28;20025;-71
2020/12/19 01:01:47;;;;;;;4.38;2.03;;;14.90;46.50;;;;;;1033924;28;20022;-72
2020/12/19 01:02:18;;;;;;;4.65;2.30;;;14.90;46.50;;;;;;1036506;28;20026;-72
2020/12/19 01:02:49;;;;;;;3.25;2.08;;;14.80;46.50;;;;;;1038352;28;20325;-72
2020/12/19 01:03:21;;;;;;;3.72;2.10;;;14.80;46.50;;;;;;1038276;28;20017;-72
2020/12/19 01:04:00;;;;;;;5.63;2.30;;;14.80;46.50;;;;;;1040699;28;20014;-72
2020/12/19 01:04:32;;;;;;;4.97;2.50;;;14.80;46.60;;;;;;1039143;28;20079;-72
2020/12/19 01:05:08;;;;;;;4.30;2.15;;;14.80;46.40;;;;;;1037348;28;20107;-72
2020/12/19 01:05:40;;;;;;;6.40;2.30;;;14.70;46.30;;;;;;1040518;28;20101;-72
2020/12/19 01:06:19;;;;;;;5.60;2.20;;;14.70;46.30;;;;;;1036700;28;20462;-71
2020/12/19 01:06:50;;;;;;;5.82;2.50;;;14.70;46.30;;;;;;1038733;28;20029;-72
2020/12/19 01:07:22;;;;;;;4.75;2.28;;;14.70;46.20;;;;;;1039590;28;20040;-72
2020/12/19 01:07:53;;;;;;;3.22;2.00;;;14.60;46.20;;;;;;1040427;28;20080;-72
2020/12/19 01:08:24;;;;;;;6.22;2.42;;;14.60;46.20;;;;;;1039794;28;20049;-72
2020/12/19 01:08:58;;;;;;;5.70;2.33;;;14.60;46.30;;;;;;1039510;28;20025;-70
2020/12/19 01:09:30;;;;;;;6.53;2.70;;;14.60;46.30;;;;;;1032385;28;20022;-71
2020/12/19 01:10:01;;;;;;;3.05;2.20;;;14.60;46.30;;;;;;1033696;28;20337;-70
2020/12/19 01:10:32;;;;;;;7.03;2.58;;;14.50;46.50;;;;;;1036045;28;20018;-71
2020/12/19 01:11:04;;;;;;;5.13;2.53;;;14.50;47.10;;;;;;1035940;28;20048;-71
2020/12/19 01:11:37;;;;;;;4.93;2.17;;;14.40;47.50;;;;;;1032091;28;20113;-72
2020/12/19 01:12:08;;;;;;;8.45;2.55;;;14.40;47.70;;;;;;1032199;28;20101;-71
2020/12/19 01:12:40;;;;;;;3.88;2.20;;;14.30;47.80;;;;;;1036622;28;20060;-72
2020/12/19 01:13:11;;;;;;;3.92;2.30;;;14.30;48.10;;;;;;1037110;28;20084;-72
2020/12/19 01:13:43;;;;;;;7.53;2.30;;;14.20;48.10;;;;;;1039314;28;20395;-72
2020/12/19 01:14:14;;;;;;;4.25;2.47;;;14.10;48.30;;;;;;1039135;28;20017;-73
2020/12/19 01:14:46;;;;;;;5.60;2.33;;;14.10;48.70;;;;;;1040369;28;20052;-72
2020/12/19 01:15:17;;;;;;;5.30;2.60;;;14.00;48.70;;;;;;1039960;28;20028;-72
2020/12/19 01:15:48;;;;;;;6.38;2.70;;;13.90;48.80;;;;;;1037354;28;20093;-72
2020/12/19 01:16:22;;;;;;;7.95;2.58;;;13.80;48.90;;;;;;1032825;28;20077;-71
2020/12/19 01:16:53;;;;;;;5.90;2.58;;;13.80;49.00;;;;;;1038301;28;20017;-71
2020/12/19 01:17:25;;;;;;;5.35;2.53;;;13.80;49.20;;;;;;1038177;28;20021;-71
2020/12/19 01:17:56;;;;;;;4.05;2.30;;;13.80;49.40;;;;;;1038021;28;20104;-71
2020/12/19 01:18:27;;;;;;;6.22;2.60;;;13.80;49.50;;;;;;1040175;28;20030;-71
2020/12/19 01:19:04;;;;;;;4.75;2.50;;;13.70;49.40;;;;;;1043383;28;20026;-71
2020/12/19 01:19:35;;;;;;;6.63;2.60;;;13.70;49.60;;;;;;1042120;28;20018;-71
2020/12/19 01:20:06;;;;;;;7.13;2.72;;;13.70;49.70;;;;;;1040087;28;20021;-71
2020/12/19 01:20:38;;;;;;;5.60;2.40;;;13.70;50.00;;;;;;1034517;28;20033;-71
2020/12/19 01:21:16;;;;;;;7.85;2.80;;;13.60;50.10;;;;;;1033787;28;20041;-71
2020/12/19 01:21:48;;;;;;;7.65;2.90;;;13.60;50.10;;;;;;1034547;28;20101;-71
2020/12/19 01:22:19;;;;;;;6.10;2.53;;;13.60;50.10;;;;;;1037168;28;20038;-71
2020/12/19 01:22:50;;;;;;;6.55;2.83;;;13.60;50.10;;;;;;1039859;28;20045;-71
2020/12/19 01:23:22;;;;;;;4.57;2.63;;;13.60;50.30;;;;;;1042870;28;20025;-71
2020/12/19 01:23:53;;;;;;;7.93;3.13;;;13.50;50.30;;;;;;1043124;28;20078;-71
2020/12/19 01:24:25;;;;;;;5.80;2.88;;;13.50;50.40;;;;;;1039947;28;20032;-71
2020/12/19 01:24:56;;;;;;;5.13;2.45;;;13.50;51.00;;;;;;1040484;28;20017;-71
2020/12/19 01:25:28;;;;;;;6.32;2.70;;;13.50;50.40;;;;;;1037792;28;20064;-71
2020/12/19 01:26:02;;;;;;;5.93;2.70;;;13.40;50.50;;;;;;1035249;28;20055;-71
2020/12/19 01:26:34;;;;;;;6.93;2.70;;;13.40;50.50;;;;;;1037810;28;20366;-71
2020/12/19 01:27:05;;;;;;;7.40;3.00;;;13.40;50.70;;;;;;1039022;28;20029;-71
2020/12/19 01:27:36;;;;;;;5.57;2.72;;;13.40;50.80;;;;;;1039793;28;20104;-71
2020/12/19 01:28:08;;;;;;;6.18;3.08;;;13.40;50.90;;;;;;1039100;28;20056;-71
2020/12/19 01:28:39;;;;;;;8.02;2.80;;;13.30;51.20;;;;;;1038902;28;20110;-71
2020/12/19 01:29:11;;;;;;;5.55;2.75;;;13.30;51.00;;;;;;1037925;28;20077;-71
2020/12/19 01:29:42;;;;;;;6.70;3.00;;;13.30;51.20;;;;;;1038071;28;20040;-71
2020/12/19 01:30:13;;;;;;;7.25;2.70;;;13.30;51.40;;;;;;1036146;28;20018;-71
2020/12/19 01:30:45;;;;;;;8.45;2.78;;;13.20;51.30;;;;;;1038652;28;20063;-71
2020/12/19 01:31:21;;;;;;;7.05;3.05;;;13.30;51.40;;;;;;1038537;28;20113;-71
2020/12/19 01:31:53;;;;;;;7.78;2.70;;;13.20;51.50;;;;;;1039627;28;20414;-71
2020/12/19 01:32:24;;;;;;;8.05;3.05;;;13.20;51.50;;;;;;1040012;28;20100;-71
2020/12/19 01:32:56;;;;;;;7.15;3.15;;;13.20;51.60;;;;;;1040090;28;20056;-71
2020/12/19 01:33:27;;;;;;;8.38;3.03;;;13.20;51.70;;;;;;1039367;28;20429;-71
2020/12/19 01:33:59;;;;;;;6.05;3.20;;;13.10;52.40;;;;;;1039199;28;20028;-71
2020/12/19 01:34:30;;;;;;;8.70;3.25;;;13.10;51.90;;;;;;1034700;28;20026;-71
2020/12/19 01:35:01;;;;;;;7.03;3.25;;;13.10;52.00;;;;;;1039217;28;20022;-71
2020/12/19 01:35:33;;;;;;;6.70;3.00;;;13.10;52.00;;;;;;1035965;28;20064;-71
2020/12/19 01:36:09;;;;;;;7.80;3.20;;;13.10;52.20;;;;;;1036374;28;20092;-71
2020/12/19 01:36:41;;;;;;;5.93;3.00;;;13.00;52.30;;;;;;1040052;28;20009;-72
2020/12/19 01:37:13;;;;;;;7.43;3.20;;;13.00;52.30;;;;;;1039062;28;20503;-71
2020/12/19 01:37:44;;;;;;;7.53;3.10;;;13.00;52.20;;;;;;1036583;28;20025;-71
2020/12/19 01:38:16;;;;;;;7.45;3.30;;;13.00;52.20;;;;;;1040102;28;20014;-71
2020/12/19 01:38:47;;;;;;;8.40;3.03;;;13.00;52.30;;;;;;1039818;28;20048;-71
2020/12/19 01:39:18;;;;;;;5.88;2.90;;;13.00;52.30;;;;;;1040426;28;20363;-72
2020/12/19 01:39:50;;;;;;;7.97;3.00;;;12.90;52.30;;;;;;1040033;28;20049;-70
2020/12/19 01:40:21;;;;;;;8.65;2.85;;;12.90;52.30;;;;;;1036708;28;20021;-70
2020/12/19 01:40:55;;;;;;;6.35;3.00;;;12.90;52.30;;;;;;1038202;28;20018;-70
2020/12/19 01:41:26;;;;;;;6.20;2.90;;;12.80;52.20;;;;;;1037222;28;20024;-70
2020/12/19 01:41:57;;;;;;;6.72;3.13;;;12.80;52.30;;;;;;1036307;28;20018;-70
2020/12/19 01:42:29;;;;;;;9.25;3.17;;;12.80;52.60;;;;;;1036215;28;20079;-70
2020/12/19 01:43:02;;;;;;;7.82;3.03;;;12.80;52.70;;;;;;1036683;28;20010;-70
2020/12/19 01:44:03;;;;;;;11.98;2.95;;;12.70;52.60;;;;;;1040273;28;20025;-70
2020/12/19 01:44:35;;;;;;;7.63;3.35;;;12.60;53.10;;;;;;1027602;28;20085;-71
2020/12/19 01:45:07;;;;;;;8.32;3.05;;;12.60;53.40;;;;;;1035167;28;20097;-70
2020/12/19 01:45:38;;;;;;;9.30;3.30;;;12.60;53.50;;;;;;1035363;28;20014;-70
2020/12/19 01:46:10;;;;;;;8.38;3.50;;;12.50;53.60;;;;;;1036603;28;20025;-70
2020/12/19 01:46:56;;;;;;;6.57;3.15;;;12.50;53.50;;;;;;1040159;28;20128;-70
2020/12/19 01:47:28;;;;;;;8.07;3.60;;;12.40;54.00;;;;;;1037275;28;20048;-71
2020/12/19 01:48:01;;;;;;;8.10;3.90;;;12.40;54.00;;;;;;1039424;28;20028;-71
2020/12/19 01:48:33;;;;;;;6.95;3.38;;;12.40;54.00;;;;;;1036708;28;20084;-71
2020/12/19 01:49:04;;;;;;;8.10;3.50;;;12.30;54.30;;;;;;1035136;28;20101;-70
2020/12/19 01:49:37;;;;;;;8.88;3.40;;;12.30;54.50;;;;;;1031978;28;20018;-71
2020/12/19 01:50:09;;;;;;;9.23;3.70;;;12.30;54.50;;;;;;1031287;28;20022;-71
2020/12/19 01:50:40;;;;;;;7.05;3.60;;;12.20;54.30;;;;;;1035989;28;20687;-71
2020/12/19 01:51:13;;;;;;;10.40;3.30;;;12.20;54.40;;;;;;1038270;28;20014;-70
2020/12/19 01:51:47;;;;;;;7.50;3.38;;;12.20;54.20;;;;;;1039983;28;20021;-71
2020/12/19 01:52:21;;;;;;;7.55;3.10;;;12.10;54.20;;;;;;1036368;28;20083;-71
2020/12/19 01:52:54;;;;;;;7.18;3.35;;;12.20;54.40;;;;;;1039117;28;20083;-70
2020/12/19 01:53:25;;;;;;;7.78;3.42;;;12.10;54.50;;;;;;1040011;28;20072;-71
2020/12/19 01:53:59;;;;;;;7.28;3.10;;;12.10;54.70;;;;;;1039482;28;20083;-71
2020/12/19 01:54:31;;;;;;;10.18;3.22;;;12.10;55.00;;;;;;1043158;28;20032;-71
2020/12/19 01:55:03;;;;;;;7.32;3.35;;;12.10;55.00;;;;;;1039951;28;20021;-72
2020/12/19 01:55:35;;;;;;;8.32;3.22;;;12.00;55.20;;;;;;1039990;28;20057;-72
2020/12/19 01:56:10;;;;;;;7.65;3.30;;;12.00;55.30;;;;;;1036985;28;20356;-72
2020/12/19 01:56:45;;;;;;;5.72;3.10;;;12.00;55.40;;;;;;1038452;28;20360;-71
2020/12/19 01:57:18;;;;;;;10.13;3.30;;;11.90;55.40;;;;;;1040254;28;20032;-72
2020/12/19 01:57:50;;;;;;;7.72;3.28;;;12.00;55.20;;;;;;1037373;28;20014;-72
2020/12/19 01:58:21;;;;;;;8.52;3.20;;;12.00;55.20;;;;;;1038116;28;20022;-72
2020/12/19 01:58:53;;;;;;;8.00;3.15;;;12.00;55.30;;;;;;1040021;28;20383;-71
2020/12/19 01:59:25;;;;;;;8.07;3.13;;;12.00;55.30;;;;;;1042360;28;20401;-71
2020/12/19 01:59:57;;;;;;;6.88;3.00;;;12.00;55.20;;;;;;1037127;28;20088;-71
2020/12/19 02:00:28;;;;;;;8.23;3.40;;;12.00;55.50;;;;;;1036837;28;20025;-72
2020/12/19 02:01:01;;;;;;;8.23;3.22;;;12.00;55.80;;;;;;1037814;28;20578;-71
2020/12/19 02:01:45;;;;;;;9.73;3.30;;;12.00;55.70;;;;;;1039803;28;20022;-71
2020/12/19 02:02:19;;;;;;;9.10;3.58;;;12.00;55.60;;;;;;1038937;28;20037;-72
2020/12/19 02:02:51;;;;;;;9.60;3.80;;;12.00;55.70;;;;;;1038300;28;20084;-71
2020/12/19 02:03:22;;;;;;;7.05;3.15;;;12.00;56.00;;;;;;1034340;28;20046;-72
2020/12/19 02:03:53;;;;;;;7.75;3.60;;;11.90;55.90;;;;;;1035635;28;20025;-72
2020/12/19 02:04:26;;;;;;;9.73;3.80;;;12.00;56.00;;;;;;1031559;28;20030;-71
2020/12/19 02:04:57;;;;;;;8.05;3.50;;;11.90;56.20;;;;;;1032748;28;20018;-71
2020/12/19 02:05:31;;;;;;;10.60;3.75;;;11.90;56.40;;;;;;1036382;28;20011;-71
2020/12/19 02:06:07;;;;;;;9.73;3.60;;;11.90;56.70;;;;;;1039348;28;20117;-71
2020/12/19 02:06:39;;;;;;;9.98;4.15;;;11.80;56.80;;;;;;1036824;28;20034;-71
2020/12/19 02:07:11;;;;;;;7.72;3.70;;;11.80;56.90;;;;;;1040193;28;20030;-71
2020/12/19 02:07:42;;;;;;;10.38;3.70;;;11.80;56.80;;;;;;1039725;28;20022;-72
2020/12/19 02:08:13;;;;;;;8.80;3.53;;;11.80;56.80;;;;;;1036157;28;20324;-71
2020/12/19 02:08:49;;;;;;;8.25;3.35;;;11.80;56.80;;;;;;1036299;28;20042;-72
2020/12/19 02:09:23;;;;;;;7.95;3.33;;;11.90;56.70;;;;;;1039542;28;20024;-71
2020/12/19 02:09:55;;;;;;;9.45;3.60;;;11.90;56.70;;;;;;1038357;28;20095;-71
2020/12/19 02:10:27;;;;;;;10.98;3.95;;;11.90;56.80;;;;;;1038675;28;20025;-71
2020/12/19 02:10:58;;;;;;;8.98;3.70;;;11.90;57.00;;;;;;1038946;28;20018;-72
2020/12/19 02:11:30;;;;;;;9.18;3.70;;;11.80;57.30;;;;;;1036737;28;20026;-71
2020/12/19 02:12:04;;;;;;;9.07;3.30;;;11.80;57.50;;;;;;1036126;28;20014;-71
2020/12/19 02:12:35;;;;;;;10.45;4.10;;;11.80;57.90;;;;;;1036142;28;20025;-71
2020/12/19 02:13:06;;;;;;;10.48;3.90;;;11.70;58.10;;;;;;1037058;28;20030;-71
2020/12/19 02:13:38;;;;;;;9.82;3.90;;;11.70;58.10;;;;;;1039979;28;20101;-71
2020/12/19 02:14:10;;;;;;;9.07;3.65;;;11.70;58.30;;;;;;1038192;28;20154;-70
2020/12/19 02:14:42;;;;;;;9.00;3.28;;;11.60;58.30;;;;;;1038147;28;20026;-70
2020/12/19 02:15:13;;;;;;;9.07;3.30;;;11.60;58.50;;;;;;1040821;28;20014;-71
2020/12/19 02:15:46;;;;;;;8.60;3.50;;;11.60;58.80;;;;;;1031985;28;20451;-71
2020/12/19 02:16:18;;;;;;;10.60;3.60;;;11.60;58.90;;;;;;1034601;28;20105;-71
2020/12/19 02:16:57;;;;;;;12.93;3.63;;;11.50;58.90;;;;;;1035068;28;20030;-71
2020/12/19 02:17:28;;;;;;;10.85;3.45;;;11.50;59.00;;;;;;1038857;28;20114;-71
2020/12/19 02:18:00;;;;;;;11.63;3.80;;;11.50;59.10;;;;;;1039274;28;20026;-72
2020/12/19 02:18:31;;;;;;;11.73;4.00;;;11.50;59.40;;;;;;1040746;28;20458;-72
2020/12/19 02:19:12;;;;;;;12.98;4.22;;;11.50;59.40;;;;;;1041094;28;20006;-71
2020/12/19 02:19:43;;;;;;;7.95;3.40;;;11.50;60.10;;;;;;1040221;28;20025;-72
2020/12/19 02:20:15;;;;;;;10.90;3.53;;;11.50;59.50;;;;;;1040310;28;20027;-72
2020/12/19 02:20:46;;;;;;;11.10;3.60;;;11.50;59.70;;;;;;1041403;28;20018;-71
2020/12/19 02:21:19;;;;;;;10.45;3.67;;;11.50;59.80;;;;;;1039493;28;20711;-72
2020/12/19 02:21:50;;;;;;;9.30;3.65;;;11.50;59.70;;;;;;1035182;28;20057;-72
2020/12/19 02:22:22;;;;;;;9.32;3.65;;;11.50;59.70;;;;;;1034376;28;20015;-72
2020/12/19 02:22:53;;;;;;;12.00;4.05;;;11.50;59.80;;;;;;1035244;28;20477;-72
2020/12/19 02:23:24;;;;;;;13.38;3.92;;;11.50;60.00;;;;;;1032832;28;20029;-72
2020/12/19 02:23:56;;;;;;;10.93;3.85;;;11.50;60.00;;;;;;1033447;28;20097;-72
2020/12/19 02:24:27;;;;;;;9.63;3.65;;;11.40;60.20;;;;;;1038714;28;20120;-72
2020/12/19 02:24:59;;;;;;;8.43;3.53;;;11.50;60.30;;;;;;1041080;28;20033;-72
2020/12/19 02:25:39;;;;;;;10.57;4.05;;;11.50;60.30;;;;;;1041107;28;20032;-72
2020/12/19 02:26:10;;;;;;;11.60;3.70;;;11.40;60.30;;;;;;1040977;28;20486;-72
2020/12/19 02:26:49;;;;;;;12.23;4.10;;;11.40;60.60;;;;;;1041071;28;20033;-72
2020/12/19 02:27:20;;;;;;;17.05;9.43;;;11.40;60.60;;;;;;1039928;28;20045;-72
2020/12/19 02:27:52;;;;;;;15.68;4.70;;;11.40;60.70;;;;;;1037095;28;20025;-72
2020/12/19 02:28:23;;;;;;;16.70;6.40;;;11.40;60.60;;;;;;1040859;28;20113;-72
2020/12/19 02:28:55;;;;;;;14.85;5.07;;;11.40;60.50;;;;;;1041156;28;20353;-72
2020/12/19 02:29:29;;;;;;;10.60;4.35;;;11.40;60.70;;;;;;1034718;28;20022;-72
2020/12/19 02:30:00;;;;;;;10.20;3.80;;;11.50;60.70;;;;;;1033693;28;20018;-72
2020/12/19 02:30:38;;;;;;;8.98;3.80;;;11.50;60.60;;;;;;1037948;28;20021;-72
2020/12/19 02:31:09;;;;;;;10.45;4.05;;;11.50;60.60;;;;;;1037602;28;20041;-72
2020/12/19 02:31:42;;;;;;;12.07;4.10;;;11.50;60.60;;;;;;1037000;28;20026;-73
2020/12/19 02:32:13;;;;;;;13.55;4.13;;;11.50;60.60;;;;;;1032804;28;20045;-72
2020/12/19 02:32:46;;;;;;;13.18;4.20;;;11.50;60.60;;;;;;1033712;28;20023;-72
2020/12/19 02:33:17;;;;;;;13.52;4.47;;;11.50;60.60;;;;;;1033564;28;20022;-72
2020/12/19 02:33:48;;;;;;;13.18;4.20;;;11.50;60.60;;;;;;1036903;28;20060;-73
2020/12/19 02:34:20;;;;;;;9.73;3.97;;;11.50;60.50;;;;;;1037029;28;20046;-73
2020/12/19 02:34:51;;;;;;;13.82;5.03;;;11.50;60.60;;;;;;1036993;28;20033;-73
2020/12/19 02:35:23;;;;;;;11.05;4.85;;;11.50;60.70;;;;;;1033376;28;20046;-73
2020/12/19 02:35:55;;;;;;;13.25;4.82;;;11.50;60.60;;;;;;1036610;28;20480;-72
2020/12/19 02:36:26;;;;;;;14.50;5.00;;;11.50;60.60;;;;;;1036104;28;20026;-72
2020/12/19 02:36:57;;;;;;;12.38;4.50;;;11.40;60.60;;;;;;1037266;28;20026;-73
2020/12/19 02:37:29;;;;;;;12.82;4.97;;;11.40;60.60;;;;;;1040024;28;20017;-72
2020/12/19 02:38:00;;;;;;;10.60;4.25;;;11.40;60.60;;;;;;1040037;28;20037;-71
2020/12/19 02:38:32;;;;;;;13.43;4.65;;;11.40;60.50;;;;;;1039518;28;20053;-72
2020/12/19 02:39:04;;;;;;;11.63;4.30;;;11.40;60.50;;;;;;1044205;28;20100;-72
2020/12/19 02:39:36;;;;;;;11.07;3.95;;;11.40;60.50;;;;;;1044724;28;20025;-72
2020/12/19 02:40:07;;;;;;;14.05;4.20;;;11.40;60.30;;;;;;1042210;28;20029;-72
2020/12/19 02:40:38;;;;;;;9.20;3.75;;;11.40;60.10;;;;;;1037878;28;20040;-72
2020/12/19 02:41:10;;;;;;;10.95;4.40;;;11.40;60.00;;;;;;1038008;28;20026;-72
2020/12/19 02:41:43;;;;;;;9.73;4.30;;;11.40;60.10;;;;;;1037018;28;20208;-78
2020/12/19 02:42:15;;;;;;;13.25;4.28;;;11.40;60.30;;;;;;1032872;28;20029;-72
2020/12/19 02:42:46;;;;;;;13.38;4.20;;;11.40;60.20;;;;;;1029545;28;20027;-72
2020/12/19 02:43:17;;;;;;;9.68;3.85;;;11.30;60.10;;;;;;1032920;28;20452;-72
2020/12/19 02:43:56;;;;;;;10.93;3.50;;;11.30;60.20;;;;;;1033295;28;20018;-72
2020/12/19 02:44:27;;;;;;;11.60;3.88;;;11.40;60.20;;;;;;1036375;28;20096;-72
2020/12/19 02:44:59;;;;;;;12.20;3.80;;;11.40;60.30;;;;;;1040875;28;20055;-72
2020/12/19 02:45:30;;;;;;;16.80;3.95;;;11.40;60.00;;;;;;1031915;28;20612;-72
2020/12/19 02:46:02;;;;;;;11.45;3.50;;;11.40;59.90;;;;;;1032967;28;20461;-72
2020/12/19 02:46:33;;;;;;;11.10;4.00;;;11.30;59.50;;;;;;1032846;28;20041;-72
2020/12/19 02:47:05;;;;;;;10.13;3.80;;;11.40;59.50;;;;;;1036307;28;20025;-72
2020/12/19 02:47:36;;;;;;;8.77;3.40;;;11.40;59.60;;;;;;1036347;28;20459;-72
2020/12/19 02:48:08;;;;;;;11.45;3.67;;;11.40;59.50;;;;;;1033389;28;20022;-72